createdAt,value
2018-04-07T00:01:25.708Z,89.80
2018-04-07T00:03:53.252Z,90.00
2018-04-07T00:06:20.796Z,90.10
2018-04-07T00:08:48.317Z,90.10
2018-04-07T00:11:16.430Z,90.10
2018-04-07T00:13:43.968Z,90.10
2018-04-07T00:16:11.492Z,90.20
2018-04-07T00:18:39.020Z,90.40
2018-04-07T00:21:06.856Z,90.50
2018-04-07T00:23:34.427Z,90.60
2018-04-07T00:26:01.974Z,90.80
2018-04-07T00:28:29.571Z,90.90
2018-04-07T00:30:57.096Z,91.40
2018-04-07T00:33:24.613Z,91.30
2018-04-07T00:35:52.164Z,91.50
2018-04-07T00:38:19.697Z,91.90
2018-04-07T00:40:47.219Z,92.00
2018-04-07T00:43:17.669Z,91.80
2018-04-07T00:45:45.189Z,91.80
2018-04-07T00:48:14.396Z,92.10
2018-04-07T00:50:41.944Z,92.10
2018-04-07T00:53:09.466Z,92.20
2018-04-07T00:55:36.976Z,92.00
2018-04-07T00:58:05.152Z,92.20
2018-04-07T01:00:32.693Z,92.30
2018-04-07T01:03:00.212Z,92.30
2018-04-07T01:05:28.336Z,92.40
2018-04-07T01:07:55.901Z,92.30
2018-04-07T01:10:23.424Z,92.30
2018-04-07T01:12:50.976Z,92.60
2018-04-07T01:15:18.496Z,92.80
2018-04-07T01:17:46.017Z,92.80
2018-04-07T01:20:25.717Z,92.90
2018-04-07T01:25:53.018Z,92.80
2018-04-07T01:28:20.534Z,93.10
2018-04-07T01:30:48.049Z,93.60
2018-04-07T01:33:16.506Z,93.20
2018-04-07T01:35:44.016Z,93.40
2018-04-07T01:38:11.541Z,93.50
2018-04-07T01:40:39.135Z,93.50
2018-04-07T01:43:06.696Z,93.70
2018-04-07T01:45:34.204Z,93.60
2018-04-07T01:48:01.952Z,93.80
2018-04-07T01:50:29.468Z,93.80
2018-04-07T01:52:57.784Z,93.60
2018-04-07T01:55:25.331Z,93.60
2018-04-07T01:57:52.844Z,93.50
2018-04-07T02:00:20.849Z,93.60
2018-04-07T02:02:48.396Z,93.70
2018-04-07T02:05:16.604Z,93.90
2018-04-07T02:07:44.110Z,93.70
2018-04-07T02:10:12.228Z,93.80
2018-04-07T02:12:39.736Z,93.80
2018-04-07T02:15:07.329Z,94.20
2018-04-07T02:17:34.877Z,93.90
2018-04-07T02:20:03.163Z,94.00
2018-04-07T02:22:30.673Z,94.00
2018-04-07T02:24:58.209Z,93.80
2018-04-07T02:27:25.808Z,94.00
2018-04-07T02:29:53.368Z,94.00
2018-04-07T02:32:21.500Z,94.10
2018-04-07T02:34:49.008Z,94.50
2018-04-07T02:37:16.523Z,95.00
2018-04-07T02:39:44.137Z,95.10
2018-04-07T02:42:12.452Z,94.50
2018-04-07T02:44:39.971Z,94.50
2018-04-07T02:47:08.292Z,94.90
2018-04-07T02:49:35.860Z,94.80
2018-04-07T02:52:03.475Z,94.70
